createdAt,value
2022-09-24T00:01:24.375Z,100081.03
2022-09-24T00:03:52.516Z,100083.59
2022-09-24T00:06:19.323Z,100083.63
2022-09-24T00:08:46.515Z,100081.03
2022-09-24T00:11:14.108Z,100085.44
2022-09-24T00:13:41.032Z,100074.59
2022-09-24T00:16:11.517Z,100068.16
2022-09-24T00:18:38.827Z,100086.12
2022-09-24T00:21:31.835Z,100083.69
2022-09-24T00:23:59.879Z,100081.03
2022-09-24T00:26:45.381Z,100079.44
2022-09-24T00:29:13.101Z,100080.34
2022-09-24T00:31:39.928Z,100075.00
2022-09-24T00:34:06.844Z,100088.19
2022-09-24T00:36:34.110Z,100091.16
2022-09-24T00:39:00.931Z,100079.19
2022-09-24T00:41:28.779Z,100088.72
2022-09-24T00:43:55.878Z,100076.34
2022-09-24T00:46:39.402Z,100075.97
2022-09-24T00:49:11.041Z,100076.09
2022-09-24T00:51:38.959Z,100074.72
2022-09-24T00:54:06.807Z,100071.25
2022-09-24T00:56:34.793Z,100071.06
2022-09-24T00:59:02.515Z,100062.84
2022-09-24T01:01:30.062Z,100064.34
2022-09-24T01:03:57.460Z,100053.72
2022-09-24T01:06:24.743Z,100057.37
2022-09-24T01:08:51.780Z,100061.75
2022-09-24T01:11:21.648Z,100062.38
2022-09-24T01:14:09.005Z,100056.31
2022-09-24T01:16:38.763Z,100059.97
2022-09-24T01:19:32.050Z,100058.78
2022-09-24T01:22:03.444Z,100046.78
2022-09-24T01:24:48.901Z,100049.97
2022-09-24T01:27:17.091Z,100046.84
2022-09-24T01:29:43.862Z,100045.00
2022-09-24T01:32:32.288Z,100045.78
2022-09-24T01:35:02.527Z,100044.37
2022-09-24T01:37:29.389Z,100044.81
2022-09-24T01:39:56.586Z,100039.44
2022-09-24T01:42:23.639Z,100033.91
2022-09-24T01:44:50.348Z,100030.63
2022-09-24T01:47:19.121Z,100030.78
2022-09-24T01:49:46.219Z,100030.63
2022-09-24T01:52:13.410Z,100031.06
2022-09-24T01:54:42.888Z,100027.28
2022-09-24T01:57:09.903Z,100024.28
2022-09-24T01:59:38.024Z,100027.50
2022-09-24T02:02:06.189Z,100033.47
2022-09-24T02:04:34.085Z,100034.19
2022-09-24T02:07:02.000Z,100036.31
2022-09-24T02:09:29.533Z,100038.09
2022-09-24T02:11:56.665Z,100028.62
2022-09-24T02:14:23.603Z,100028.81
2022-09-24T02:16:51.782Z,100035.41
2022-09-24T02:19:23.110Z,100032.38
2022-09-24T02:21:49.907Z,100035.56
2022-09-24T02:24:23.065Z,100032.19
2022-09-24T02:26:50.786Z,100038.72
2022-09-24T02:29:18.584Z,100032.31
2022-09-24T02:31:46.895Z,100037.97
2022-09-24T02:34:34.122Z,100034.03
2022-09-24T02:37:05.303Z,100044.69
2022-09-24T02:39:33.686Z,100043.84
2022-09-24T02:42:00.857Z,100040.59
2022-09-24T02:44:28.575Z,100032.44
2022-09-24T02:46:55.772Z,100026.81
2022-09-24T02:49:22.536Z,100037.09
2022-09-24T02:51:49.370Z,100029.72
2022-09-24T02:54:16.332Z,100040.94
2022-09-24T02:56:43.033Z,100040.69
2022-09-24T02:59:09.782Z,100030.25
2022-09-24T03:01:36.901Z,100032.66
2022-09-24T03:04:03.788Z,100038.53
2022-09-24T03:06:30.577Z,100036.44
2022-09-24T03:08:57.526Z,100038.53
2022-09-24T03:11:24.345Z,100033.34
2022-09-24T03:13:51.394Z,100031.44
2022-09-24T03:16:18.629Z,100022.88
2022-09-24T03:18:46.682Z,100016.41
2022-09-24T03:21:13.992Z,100019.50
2022-09-24T03:23:41.255Z,100009.09
2022-09-24T03:26:08.137Z,100011.81
2022-09-24T03:28:34.806Z,100017.53
2022-09-24T03:31:01.926Z,100004.78
2022-09-24T03:33:49.336Z,99995.25
2022-09-24T03:36:17.685Z,100000.06
2022-09-24T03:38:45.169Z,100008.19
2022-09-24T03:41:12.863Z,100008.75
2022-09-24T03:43:39.864Z,100005.59
2022-09-24T03:46:06.944Z,100002.53
2022-09-24T03:48:34.805Z,100000.31
2022-09-24T03:51:08.784Z,99993.25
2022-09-24T03:53:35.522Z,99988.19
2022-09-24T03:56:03.144Z,99993.25
2022-09-24T03:58:31.496Z,99990.62
2022-09-24T04:00:58.274Z,99995.00
2022-09-24T04:03:25.372Z,99995.22
2022-09-24T04:05:52.252Z,99989.72
2022-09-24T04:08:21.995Z,99985.09
2022-09-24T04:10:50.999Z,99993.37
2022-09-24T04:13:18.064Z,99989.50
2022-09-24T04:15:45.036Z,99992.19
2022-09-24T04:18:12.051Z,99995.75
2022-09-24T04:20:38.796Z,99990.09
2022-09-24T04:23:05.476Z,99998.97
2022-09-24T04:25:32.443Z,99998.69
2022-09-24T04:28:03.053Z,99999.09
2022-09-24T04:30:30.162Z,99994.03
2022-09-24T04:32:59.913Z,99999.91
2022-09-24T04:35:27.117Z,100006.03
2022-09-24T04:37:53.872Z,100000.25
2022-09-24T04:40:20.913Z,99999.69
2022-09-24T04:42:47.681Z,99999.03
2022-09-24T04:45:16.469Z,99993.75
2022-09-24T04:47:43.413Z,100004.72
2022-09-24T04:50:11.403Z,100007.22
2022-09-24T04:52:38.712Z,100014.91
2022-09-24T04:55:05.931Z,100009.09
2022-09-24T04:57:36.499Z,100007.38
2022-09-24T05:00:07.257Z,100008.53
2022-09-24T05:02:34.341Z,100013.16
2022-09-24T05:05:01.044Z,100001.72
2022-09-24T05:07:27.751Z,100005.00
2022-09-24T05:09:54.722Z,100001.28
2022-09-24T05:12:21.383Z,99984.66
2022-09-24T05:14:48.751Z,99979.88
2022-09-24T05:17:15.717Z,99985.03
2022-09-24T05:19:42.401Z,99992.34
2022-09-24T05:22:09.065Z,99983.56
2022-09-24T05:24:36.006Z,99990.47
2022-09-24T05:27:11.544Z,99986.03
2022-09-24T05:29:39.556Z,99991.66
2022-09-24T05:32:10.493Z,99994.16
2022-09-24T05:34:37.213Z,99990.28
2022-09-24T05:37:04.745Z,99989.12
2022-09-24T05:39:33.962Z,99988.00
2022-09-24T05:42:01.871Z,99981.62
2022-09-24T05:44:29.539Z,99980.03
2022-09-24T05:46:56.229Z,99983.50
2022-09-24T05:49:23.056Z,99990.50
2022-09-24T05:51:50.480Z,99985.66
2022-09-24T05:54:17.464Z,99992.84
2022-09-24T05:56:44.149Z,99993.63
2022-09-24T05:59:11.257Z,99997.22
2022-09-24T06:01:38.060Z,99991.81
2022-09-24T06:04:08.884Z,100000.06
2022-09-24T06:06:36.457Z,99999.16
2022-09-24T06:09:03.421Z,100002.41
2022-09-24T06:11:40.079Z,99996.28
2022-09-24T06:14:14.676Z,100000.75
2022-09-24T06:16:50.478Z,99997.88
2022-09-24T06:19:26.221Z,100001.78
2022-09-24T06:21:55.357Z,100002.25
2022-09-24T06:24:27.546Z,100002.41
2022-09-24T06:26:56.219Z,99999.19
2022-09-24T06:29:36.272Z,100000.31
2022-09-24T06:32:06.272Z,100003.19
2022-09-24T06:34:39.764Z,100007.50
2022-09-24T06:37:07.845Z,100006.84
2022-09-24T06:39:35.168Z,100012.09
2022-09-24T06:42:02.864Z,100007.94
2022-09-24T06:44:34.923Z,100003.75
2022-09-24T06:47:05.652Z,100009.13
2022-09-24T06:49:36.431Z,99998.84
2022-09-24T06:52:05.131Z,100005.78
2022-09-24T06:54:35.687Z,100009.34
2022-09-24T06:57:04.265Z,100005.91
2022-09-24T06:59:30.964Z,100009.53
2022-09-24T07:01:58.452Z,100006.09
2022-09-24T07:04:25.165Z,100004.44
2022-09-24T07:07:10.406Z,100009.75
2022-09-24T07:09:40.758Z,100017.63
2022-09-24T07:12:08.889Z,100020.28
2022-09-24T07:14:35.666Z,100018.53
2022-09-24T07:17:02.685Z,100017.63
2022-09-24T07:19:29.377Z,100014.06
2022-09-24T07:21:56.084Z,100014.97
2022-09-24T07:24:23.188Z,100018.34
2022-09-24T07:26:49.869Z,100020.16
2022-09-24T07:29:16.589Z,100024.44
2022-09-24T07:31:43.616Z,100018.28
2022-09-24T07:34:10.403Z,100019.19
2022-09-24T07:36:37.171Z,100025.31
2022-09-24T07:39:04.947Z,100028.88
2022-09-24T07:41:31.685Z,100030.59
2022-09-24T07:43:58.437Z,100030.53
2022-09-24T07:46:25.752Z,100027.91
2022-09-24T07:48:54.224Z,100033.94
2022-09-24T07:51:20.953Z,100035.56
2022-09-24T07:53:48.606Z,100036.47
2022-09-24T07:56:15.275Z,100039.09
2022-09-24T07:58:41.991Z,100037.41
2022-09-24T08:01:08.982Z,100033.81
2022-09-24T08:03:36.602Z,100031.91
2022-09-24T08:06:04.217Z,100028.53
2022-09-24T08:08:30.888Z,100030.28
2022-09-24T08:10:57.921Z,100024.78
2022-09-24T08:13:27.738Z,100030.19
2022-09-24T08:15:59.543Z,100026.38
2022-09-24T08:18:26.715Z,100020.97
2022-09-24T08:20:53.408Z,100019.19
2022-09-24T08:23:20.720Z,100022.38
2022-09-24T08:25:47.959Z,100023.25
2022-09-24T08:28:17.060Z,100019.56
2022-09-24T08:30:44.219Z,100017.56
2022-09-24T08:33:11.278Z,100004.06
2022-09-24T08:35:40.197Z,99994.50
2022-09-24T08:38:07.153Z,100000.25
2022-09-24T08:40:43.486Z,99995.38
2022-09-24T08:43:15.788Z,99995.88
2022-09-24T08:46:03.105Z,99999.91
2022-09-24T08:48:31.695Z,99994.94
2022-09-24T08:51:01.348Z,99990.97
2022-09-24T08:53:28.167Z,99994.94
2022-09-24T08:55:56.072Z,100001.72
2022-09-24T08:58:32.025Z,99990.81
2022-09-24T09:01:01.052Z,99998.06
2022-09-24T09:03:51.731Z,99999.28
2022-09-24T09:06:36.750Z,100001.31
2022-09-24T09:09:13.918Z,99995.09
2022-09-24T09:11:41.007Z,99988.50
2022-09-24T09:14:12.492Z,99977.63
2022-09-24T09:16:58.870Z,99979.16
2022-09-24T09:19:27.239Z,99976.16
2022-09-24T09:21:56.035Z,99974.16
2022-09-24T09:24:26.730Z,99971.66
2022-09-24T09:26:55.270Z,99980.53
2022-09-24T09:29:22.744Z,99965.03
2022-09-24T09:32:02.796Z,99971.09
2022-09-24T09:34:35.720Z,99970.87
2022-09-24T09:37:08.272Z,99958.78
2022-09-24T09:39:45.999Z,99958.78
2022-09-24T09:42:12.712Z,99960.03
2022-09-24T09:44:43.175Z,99957.78
2022-09-24T09:47:16.976Z,99956.72
2022-09-24T09:49:44.196Z,99956.16
2022-09-24T09:52:13.262Z,99958.75
2022-09-24T09:54:41.183Z,99957.09
2022-09-24T09:57:08.833Z,99956.06
2022-09-24T09:59:35.582Z,99958.19
2022-09-24T10:02:02.367Z,99963.31
2022-09-24T10:04:35.538Z,99955.72
2022-09-24T10:07:15.127Z,99951.25
2022-09-24T10:09:42.614Z,99947.00
2022-09-24T10:12:16.167Z,99954.09
2022-09-24T10:14:43.310Z,99944.78
2022-09-24T10:17:11.743Z,99932.41
2022-09-24T10:19:39.421Z,99942.22
2022-09-24T10:22:17.583Z,99936.75
2022-09-24T10:24:44.258Z,99936.50
2022-09-24T10:27:12.846Z,99929.06
2022-09-24T10:29:58.309Z,99935.59
2022-09-24T10:32:26.233Z,99929.06
2022-09-24T10:35:00.499Z,99928.12
2022-09-24T10:37:27.760Z,99918.31
2022-09-24T10:40:01.718Z,99912.41
2022-09-24T10:42:29.385Z,99916.00
2022-09-24T10:44:56.469Z,99903.31
2022-09-24T10:47:32.949Z,99907.97
2022-09-24T10:50:04.138Z,99910.34
2022-09-24T10:52:43.048Z,99920.44
2022-09-24T10:55:28.946Z,99916.87
2022-09-24T10:58:04.698Z,99916.72
2022-09-24T11:00:52.186Z,99917.34
2022-09-24T11:03:19.045Z,99922.06
2022-09-24T11:06:04.867Z,99910.34
2022-09-24T11:08:54.885Z,99919.69
2022-09-24T11:11:37.300Z,99903.44
2022-09-24T11:14:04.256Z,99897.41
2022-09-24T11:16:44.794Z,99904.63
2022-09-24T11:19:24.001Z,99901.72
2022-09-24T11:22:06.774Z,99898.50
2022-09-24T11:24:36.011Z,99895.50
2022-09-24T11:27:14.859Z,99886.97
2022-09-24T11:29:44.985Z,99878.91
2022-09-24T11:32:12.882Z,99883.72
2022-09-24T11:34:58.348Z,99889.44
2022-09-24T11:37:39.378Z,99886.37
2022-09-24T11:40:12.375Z,99869.72
2022-09-24T11:42:53.601Z,99871.84
2022-09-24T11:45:27.214Z,99871.47
2022-09-24T11:48:03.782Z,99868.19
2022-09-24T11:50:47.555Z,99873.03
2022-09-24T11:53:31.669Z,99863.56
2022-09-24T11:55:59.159Z,99868.66
2022-09-24T11:58:30.960Z,99866.31
2022-09-24T12:00:59.377Z,99861.88
2022-09-24T12:03:35.407Z,99870.72
2022-09-24T12:06:13.328Z,99855.47
2022-09-24T12:09:01.498Z,99852.53
2022-09-24T12:11:36.187Z,99844.12
2022-09-24T12:14:05.696Z,99843.75
2022-09-24T12:16:33.944Z,99848.75
2022-09-24T12:19:08.247Z,99856.75
2022-09-24T12:21:42.204Z,99845.16
2022-09-24T12:24:11.423Z,99845.16
2022-09-24T12:26:38.359Z,99848.87
2022-09-24T12:29:41.749Z,99841.69
2022-09-24T12:32:40.135Z,99841.59
2022-09-24T12:35:07.282Z,99847.03
2022-09-24T12:37:36.021Z,99843.09
2022-09-24T12:40:22.984Z,99827.91
2022-09-24T12:42:50.432Z,99835.63
2022-09-24T12:45:18.313Z,99833.81
2022-09-24T12:47:52.228Z,99826.22
2022-09-24T12:50:40.674Z,99828.22
2022-09-24T12:53:24.891Z,99834.22
2022-09-24T12:55:51.936Z,99830.69
2022-09-24T12:58:37.548Z,99829.03
2022-09-24T13:01:05.601Z,99823.25
2022-09-24T13:03:33.242Z,99820.25
2022-09-24T13:06:00.389Z,99818.59
2022-09-24T13:08:35.415Z,99816.69
2022-09-24T13:11:05.653Z,99813.41
2022-09-24T13:13:36.476Z,99812.50
2022-09-24T13:16:03.222Z,99806.53
2022-09-24T13:18:30.124Z,99813.66
2022-09-24T13:21:00.139Z,99822.12
2022-09-24T13:23:27.416Z,99825.50
2022-09-24T13:25:56.469Z,99814.06
2022-09-24T13:28:25.357Z,99801.16
2022-09-24T13:30:59.874Z,99796.84
2022-09-24T13:33:33.753Z,99798.03
2022-09-24T13:36:06.566Z,99803.28
2022-09-24T13:38:34.317Z,99797.84
2022-09-24T13:41:02.807Z,99799.47
2022-09-24T13:43:33.514Z,99799.69
2022-09-24T13:46:00.514Z,99797.38
2022-09-24T13:48:32.430Z,99794.78
2022-09-24T13:50:59.129Z,99800.12
2022-09-24T13:53:37.259Z,99798.03
2022-09-24T13:56:04.624Z,99792.03
2022-09-24T13:58:32.904Z,99792.00
2022-09-24T14:01:00.365Z,99786.31
2022-09-24T14:03:33.854Z,99784.28
2022-09-24T14:06:00.717Z,99791.53
2022-09-24T14:08:28.056Z,99794.00
2022-09-24T14:11:04.132Z,99793.72
2022-09-24T14:13:31.093Z,99796.66
2022-09-24T14:15:57.935Z,99791.06
2022-09-24T14:18:25.874Z,99793.41
2022-09-24T14:20:57.218Z,99792.09
2022-09-24T14:23:24.614Z,99784.84
2022-09-24T14:25:51.308Z,99782.34
2022-09-24T14:28:18.290Z,99787.50
2022-09-24T14:30:52.121Z,99783.47
2022-09-24T14:33:20.434Z,99777.94
2022-09-24T14:35:48.140Z,99775.56
2022-09-24T14:38:31.299Z,99778.47
2022-09-24T14:41:05.671Z,99774.03
2022-09-24T14:43:52.677Z,99769.09
2022-09-24T14:46:19.910Z,99775.06
2022-09-24T14:48:47.635Z,99779.31
2022-09-24T14:51:30.508Z,99778.63
2022-09-24T14:54:20.419Z,99782.50
2022-09-24T14:56:47.147Z,99781.09
2022-09-24T14:59:16.835Z,99779.87
2022-09-24T15:01:43.544Z,99771.87
2022-09-24T15:04:18.406Z,99770.66
2022-09-24T15:06:46.178Z,99770.72
2022-09-24T15:09:22.340Z,99775.69
2022-09-24T15:11:49.333Z,99767.34
2022-09-24T15:14:16.042Z,99777.31
2022-09-24T15:16:43.332Z,99772.37
2022-09-24T15:19:37.799Z,99776.06
2022-09-24T15:22:04.496Z,99773.66
2022-09-24T15:24:31.444Z,99777.72
2022-09-24T15:27:04.316Z,99771.13
2022-09-24T15:29:31.448Z,99772.13
2022-09-24T15:31:58.110Z,99772.13
2022-09-24T15:34:24.914Z,99768.88
2022-09-24T15:36:54.151Z,99764.25
2022-09-24T15:39:20.831Z,99756.16
2022-09-24T15:41:47.606Z,99752.62
2022-09-24T15:44:20.418Z,99760.44
2022-09-24T15:46:48.223Z,99765.25
2022-09-24T15:49:16.337Z,99758.19
2022-09-24T15:51:44.081Z,99756.75
2022-09-24T15:54:10.788Z,99758.50
2022-09-24T15:56:41.032Z,99757.63
2022-09-24T15:59:13.094Z,99757.44
2022-09-24T16:01:40.451Z,99753.41
2022-09-24T16:04:08.943Z,99742.47
2022-09-24T16:06:36.686Z,99744.72
2022-09-24T16:09:04.082Z,99751.81
2022-09-24T16:11:31.450Z,99755.19
2022-09-24T16:13:58.119Z,99762.09
2022-09-24T16:16:25.019Z,99755.84
2022-09-24T16:18:52.541Z,99768.34
2022-09-24T16:21:19.359Z,99759.00
2022-09-24T16:23:46.038Z,99754.59
2022-09-24T16:26:12.974Z,99752.13
2022-09-24T16:28:39.963Z,99748.87
2022-09-24T16:31:09.614Z,99745.25
2022-09-24T16:33:37.538Z,99742.22
2022-09-24T16:36:05.383Z,99745.59
2022-09-24T16:38:35.827Z,99743.63
2022-09-24T16:41:03.104Z,99742.06
2022-09-24T16:43:29.900Z,99747.47
2022-09-24T16:46:00.136Z,99744.59
2022-09-24T16:48:27.404Z,99745.03
2022-09-24T16:50:55.539Z,99749.25
2022-09-24T16:53:22.248Z,99745.88
2022-09-24T16:55:50.398Z,99744.38
2022-09-24T16:58:17.140Z,99747.47
2022-09-24T17:00:43.883Z,99748.87
2022-09-24T17:03:11.160Z,99746.31
2022-09-24T17:05:40.696Z,99744.75
2022-09-24T17:08:07.479Z,99748.03
2022-09-24T17:10:34.546Z,99747.53
2022-09-24T17:13:01.855Z,99745.78
2022-09-24T17:15:28.742Z,99750.84
2022-09-24T17:17:55.752Z,99747.44
2022-09-24T17:20:22.483Z,99748.59
2022-09-24T17:22:49.859Z,99739.94
2022-09-24T17:25:17.005Z,99748.84
2022-09-24T17:27:44.970Z,99751.56
2022-09-24T17:30:11.902Z,99755.22
2022-09-24T17:32:38.858Z,99757.91
2022-09-24T17:35:08.855Z,99763.34
2022-09-24T17:37:36.004Z,99759.94
2022-09-24T17:40:25.104Z,99751.91
2022-09-24T17:43:04.898Z,99761.66
2022-09-24T17:45:38.826Z,99753.75
2022-09-24T17:48:19.701Z,99748.63
2022-09-24T17:51:09.840Z,99756.50
2022-09-24T17:53:38.015Z,99762.56
2022-09-24T17:56:08.223Z,99755.72
2022-09-24T17:58:42.165Z,99757.59
2022-09-24T18:01:13.820Z,99757.94
2022-09-24T18:03:41.652Z,99758.81
2022-09-24T18:06:36.668Z,99761.53
2022-09-24T18:09:16.574Z,99764.09
2022-09-24T18:11:57.096Z,99758.22
2022-09-24T18:14:26.025Z,99771.28
2022-09-24T18:16:59.019Z,99773.34
2022-09-24T18:19:36.473Z,99763.25
2022-09-24T18:22:06.597Z,99766.38
2022-09-24T18:24:34.373Z,99768.16
2022-09-24T18:27:01.920Z,99769.19
2022-09-24T18:29:32.859Z,99769.84
2022-09-24T18:32:02.042Z,99771.78
2022-09-24T18:34:30.022Z,99767.44
2022-09-24T18:36:57.395Z,99762.91
2022-09-24T18:39:27.224Z,99766.44
2022-09-24T18:41:59.156Z,99763.59
2022-09-24T18:44:33.789Z,99770.16
2022-09-24T18:47:03.766Z,99767.28
2022-09-24T18:49:32.435Z,99772.44
2022-09-24T18:51:59.603Z,99769.78
2022-09-24T18:54:47.103Z,99766.16
2022-09-24T18:57:14.802Z,99769.56
2022-09-24T18:59:48.503Z,99780.13
2022-09-24T19:02:17.910Z,99779.50
2022-09-24T19:04:48.862Z,99778.44
2022-09-24T19:07:20.671Z,99777.63
2022-09-24T19:09:54.265Z,99782.16
2022-09-24T19:12:26.311Z,99769.47
2022-09-24T19:15:00.499Z,99766.16
2022-09-24T19:17:32.594Z,99774.13
2022-09-24T19:23:01.977Z,99772.75
2022-09-24T19:25:32.495Z,99763.22
2022-09-24T19:27:59.854Z,99769.34
2022-09-24T19:30:27.671Z,99768.25
2022-09-24T19:32:54.363Z,99765.69
2022-09-24T19:35:22.581Z,99769.31
2022-09-24T19:37:50.226Z,99764.91
2022-09-24T19:40:19.837Z,99764.41
2022-09-24T19:42:47.258Z,99754.28
2022-09-24T19:45:15.048Z,99758.69
2022-09-24T19:47:42.038Z,99751.03
2022-09-24T19:50:17.894Z,99762.59
2022-09-24T19:52:47.333Z,99758.22
2022-09-24T19:55:18.157Z,99758.16
2022-09-24T19:57:46.637Z,99767.13
2022-09-24T20:00:15.025Z,99759.22
2022-09-24T20:02:42.146Z,99760.84
2022-09-24T20:05:08.874Z,99754.66
2022-09-24T20:07:35.686Z,99752.78
2022-09-24T20:10:03.296Z,99759.97
2022-09-24T20:12:30.054Z,99758.16
2022-09-24T20:14:56.769Z,99763.50
2022-09-24T20:17:24.138Z,99758.50
2022-09-24T20:19:50.848Z,99760.47
2022-09-24T20:22:17.657Z,99753.44
2022-09-24T20:24:44.650Z,99753.28
2022-09-24T20:27:30.636Z,99752.22
2022-09-24T20:29:57.637Z,99751.56
2022-09-24T20:32:27.026Z,99751.78
2022-09-24T20:34:53.805Z,99746.44
2022-09-24T20:37:20.845Z,99750.84
2022-09-24T20:39:48.359Z,99743.47
2022-09-24T20:42:16.374Z,99750.25
2022-09-24T20:44:46.253Z,99751.81
2022-09-24T20:47:13.424Z,99754.34
2022-09-24T20:49:41.726Z,99752.81
2022-09-24T20:52:12.605Z,99751.66
2022-09-24T20:54:41.975Z,99748.06
2022-09-24T20:57:09.766Z,99738.31
2022-09-24T20:59:40.349Z,99743.34
2022-09-24T21:02:07.504Z,99747.72
2022-09-24T21:04:44.601Z,99747.75
2022-09-24T21:07:12.223Z,99744.81
2022-09-24T21:09:39.759Z,99739.41
2022-09-24T21:12:08.815Z,99746.50
2022-09-24T21:14:37.312Z,99745.22
2022-09-24T21:17:10.357Z,99739.72
2022-09-24T21:19:40.561Z,99750.63
2022-09-24T21:22:08.337Z,99750.50
2022-09-24T21:24:36.972Z,99742.44
2022-09-24T21:27:05.276Z,99744.25
2022-09-24T21:29:32.847Z,99752.22
2022-09-24T21:31:59.552Z,99744.28
2022-09-24T21:34:26.711Z,99750.59
2022-09-24T21:36:53.695Z,99745.34
2022-09-24T21:39:23.065Z,99748.75
2022-09-24T21:41:50.320Z,99754.03
2022-09-24T21:44:17.755Z,99747.97
2022-09-24T21:46:44.489Z,99743.72
2022-09-24T21:49:11.314Z,99740.13
2022-09-24T21:51:38.571Z,99747.16
2022-09-24T21:54:06.311Z,99752.59
2022-09-24T21:56:33.521Z,99750.97
2022-09-24T21:59:00.628Z,99754.44
2022-09-24T22:01:28.805Z,99746.59
2022-09-24T22:03:59.614Z,99744.69
2022-09-24T22:06:29.897Z,99740.44
2022-09-24T22:08:57.983Z,99747.66
2022-09-24T22:11:26.389Z,99752.66
2022-09-24T22:13:53.710Z,99749.09
2022-09-24T22:16:21.130Z,99743.16
2022-09-24T22:18:47.806Z,99747.41
2022-09-24T22:21:14.949Z,99736.84
2022-09-24T22:23:42.012Z,99736.91
2022-09-24T22:26:09.231Z,99729.19
2022-09-24T22:28:36.246Z,99733.44
2022-09-24T22:31:04.808Z,99737.03
2022-09-24T22:33:50.534Z,99736.09
2022-09-24T22:36:17.567Z,99728.78
2022-09-24T22:38:44.261Z,99736.34
2022-09-24T22:41:12.200Z,99731.97
2022-09-24T22:43:39.636Z,99732.63
2022-09-24T22:46:07.472Z,99729.31
2022-09-24T22:48:34.322Z,99725.25
2022-09-24T22:51:01.778Z,99725.16
2022-09-24T22:53:28.638Z,99728.56
2022-09-24T22:56:09.045Z,99718.16
2022-09-24T22:58:36.541Z,99721.75
2022-09-24T23:01:10.737Z,99722.66
2022-09-24T23:03:38.125Z,99723.62
2022-09-24T23:06:06.175Z,99721.81
2022-09-24T23:08:33.621Z,99714.91
2022-09-24T23:11:14.546Z,99720.34
2022-09-24T23:13:42.154Z,99725.50
2022-09-24T23:16:10.454Z,99723.28
2022-09-24T23:18:37.785Z,99720.59
2022-09-24T23:21:05.357Z,99725.75
2022-09-24T23:23:32.732Z,99718.66
2022-09-24T23:26:07.702Z,99722.34
2022-09-24T23:28:34.809Z,99722.28
2022-09-24T23:31:01.904Z,99726.56
2022-09-24T23:33:35.851Z,99722.34
2022-09-24T23:36:03.715Z,99716.31
2022-09-24T23:38:30.462Z,99721.50
2022-09-24T23:40:58.811Z,99724.03
2022-09-24T23:43:27.374Z,99721.38
2022-09-24T23:45:54.689Z,99710.19
2022-09-24T23:48:21.589Z,99721.50
2022-09-24T23:50:49.038Z,99710.22
2022-09-24T23:53:16.739Z,99717.38
2022-09-24T23:55:47.885Z,99722.62
2022-09-24T23:58:17.130Z,99724.44
